createdAt,value
2022-12-11T00:01:24.378Z,325.50
2022-12-11T00:06:24.275Z,325.50
2022-12-11T00:11:24.441Z,258.20
2022-12-11T00:16:27.072Z,258.20
2022-12-11T00:21:24.401Z,268.80
2022-12-11T00:26:24.189Z,268.80
2022-12-11T00:31:24.440Z,285.30
2022-12-11T00:36:24.211Z,285.30
2022-12-11T00:41:24.348Z,302.50
2022-12-11T00:46:24.236Z,302.50
2022-12-11T00:51:24.337Z,555.30
2022-12-11T00:56:24.477Z,555.30
2022-12-11T01:01:24.413Z,340.80
2022-12-11T01:06:24.144Z,340.80
2022-12-11T01:11:24.282Z,281.20
2022-12-11T01:16:24.484Z,281.20
2022-12-11T01:21:24.198Z,509.10
2022-12-11T01:26:24.344Z,509.10
2022-12-11T01:31:24.175Z,335.20
2022-12-11T01:36:24.336Z,335.20
2022-12-11T01:41:24.196Z,349.30
2022-12-11T01:46:24.257Z,349.30
2022-12-11T01:51:24.222Z,640.50
2022-12-11T01:56:24.218Z,640.50
2022-12-11T02:01:24.265Z,671.60
2022-12-11T02:06:24.228Z,671.60
2022-12-11T02:11:24.208Z,659.20
2022-12-11T02:16:24.275Z,659.20
2022-12-11T02:21:24.376Z,663.30
2022-12-11T02:26:24.765Z,663.30
2022-12-11T02:31:24.360Z,531.20
2022-12-11T02:36:24.233Z,531.20
2022-12-11T02:41:24.328Z,424.80
2022-12-11T02:46:24.459Z,424.80
2022-12-11T02:51:24.311Z,429.70
2022-12-11T02:56:24.235Z,429.70
2022-12-11T03:01:24.603Z,255.10
2022-12-11T03:06:24.376Z,255.10
2022-12-11T03:11:24.547Z,360.30
2022-12-11T03:16:24.269Z,360.30
2022-12-11T03:26:24.320Z,457.00
2022-12-11T03:31:24.460Z,432.20
2022-12-11T03:36:24.291Z,432.20
2022-12-11T03:41:24.265Z,666.90
2022-12-11T03:46:24.339Z,666.90
2022-12-11T03:51:24.233Z,414.10
2022-12-11T03:56:24.657Z,414.10
2022-12-11T04:01:24.375Z,475.10
2022-12-11T04:06:24.532Z,475.10
2022-12-11T04:11:24.270Z,449.80
2022-12-11T04:16:24.471Z,449.80
2022-12-11T04:21:24.327Z,479.10
2022-12-11T04:31:24.653Z,513.20
2022-12-11T04:36:24.438Z,513.20
2022-12-11T04:41:24.557Z,527.00
2022-12-11T04:46:24.336Z,527.00
2022-12-11T04:51:24.266Z,432.20
2022-12-11T04:56:24.284Z,432.20
2022-12-11T05:01:24.326Z,530.00
2022-12-11T05:06:24.277Z,530.00
2022-12-11T05:11:24.240Z,538.30
2022-12-11T05:16:24.373Z,538.30
2022-12-11T05:21:24.261Z,576.00
2022-12-11T05:26:24.609Z,576.00
2022-12-11T05:31:24.344Z,540.60
2022-12-11T05:36:24.556Z,540.60
2022-12-11T05:41:24.309Z,547.40
2022-12-11T05:46:24.592Z,547.40
2022-12-11T05:51:24.298Z,563.10
2022-12-11T05:56:24.514Z,563.10
2022-12-11T06:01:24.334Z,563.50
2022-12-11T06:06:24.482Z,563.50
2022-12-11T06:11:24.637Z,543.40
2022-12-11T06:16:24.491Z,543.40
2022-12-11T06:21:24.306Z,554.30
2022-12-11T06:26:24.410Z,554.30
2022-12-11T06:31:24.605Z,562.30
2022-12-11T06:36:24.386Z,562.30
2022-12-11T06:46:24.432Z,559.90
2022-12-11T06:51:24.499Z,464.20
2022-12-11T06:56:24.321Z,464.20
2022-12-11T07:01:24.647Z,464.20
2022-12-11T07:06:24.608Z,464.20
2022-12-11T07:11:24.418Z,548.50
2022-12-11T07:16:24.374Z,548.50
2022-12-11T07:21:24.458Z,560.00
2022-12-11T07:26:24.325Z,560.00
2022-12-11T07:31:24.423Z,574.70
2022-12-11T07:36:24.298Z,574.70
2022-12-11T07:41:24.358Z,582.60
2022-12-11T07:46:24.336Z,582.60
2022-12-11T07:51:24.344Z,574.30
2022-12-11T07:56:24.326Z,574.30
2022-12-11T08:01:24.361Z,577.00
2022-12-11T08:06:24.438Z,577.00
2022-12-11T08:11:24.583Z,565.40
2022-12-11T08:16:24.434Z,565.40
2022-12-11T08:31:24.761Z,552.00
2022-12-11T08:36:24.658Z,552.00
2022-12-11T08:41:24.349Z,582.50
2022-12-11T08:46:24.702Z,582.50
2022-12-11T08:51:24.353Z,543.50
2022-12-11T09:01:24.464Z,559.70
2022-12-11T09:06:24.580Z,559.70
2022-12-11T09:11:24.375Z,528.90
2022-12-11T09:16:24.448Z,528.90
2022-12-11T09:21:24.374Z,532.90
2022-12-11T09:26:24.397Z,532.90
2022-12-11T09:31:24.700Z,518.10
2022-12-11T09:36:24.373Z,518.10
2022-12-11T09:41:24.618Z,393.70
2022-12-11T09:46:24.767Z,393.70
2022-12-11T09:51:24.582Z,432.70
2022-12-11T09:53:16.880Z,432.70
2022-12-11T10:01:26.582Z,489.10
2022-12-11T10:06:24.390Z,489.10
2022-12-11T10:11:24.525Z,477.50
2022-12-11T10:16:24.666Z,477.50
2022-12-11T10:21:24.512Z,550.00
2022-12-11T10:26:24.615Z,550.00
2022-12-11T10:31:24.552Z,592.80
2022-12-11T10:36:24.569Z,592.80
2022-12-11T10:41:24.408Z,575.00
2022-12-11T10:51:24.982Z,449.10
2022-12-11T10:56:24.546Z,449.10
2022-12-11T11:01:24.419Z,506.70
2022-12-11T11:06:24.518Z,506.70
2022-12-11T11:11:24.635Z,511.50
2022-12-11T11:16:24.521Z,511.50
2022-12-11T11:21:24.425Z,521.10
2022-12-11T11:26:30.760Z,521.10
2022-12-11T11:31:24.629Z,562.50
2022-12-11T11:36:26.752Z,562.50
2022-12-11T11:41:24.440Z,566.10
2022-12-11T11:46:24.496Z,566.10
2022-12-11T11:51:24.431Z,570.20
2022-12-11T12:01:24.474Z,520.20
2022-12-11T12:06:24.654Z,520.20
2022-12-11T12:11:24.446Z,530.90
2022-12-11T12:16:51.712Z,530.90
2022-12-11T12:21:24.764Z,553.40
2022-12-11T12:26:24.673Z,553.40
2022-12-11T12:31:24.749Z,582.90
2022-12-11T12:36:24.475Z,582.90
2022-12-11T12:41:24.701Z,557.90
2022-12-11T12:51:25.085Z,589.90
2022-12-11T12:56:24.717Z,589.90
2022-12-11T13:01:24.700Z,546.80
2022-12-11T13:06:26.777Z,546.80
2022-12-11T13:11:24.458Z,554.50
2022-12-11T13:16:24.467Z,554.50
2022-12-11T13:21:24.549Z,627.80
2022-12-11T13:26:24.719Z,627.80
2022-12-11T13:31:24.734Z,638.10
2022-12-11T13:36:24.978Z,638.10
2022-12-11T13:41:24.583Z,627.80
2022-12-11T13:46:24.826Z,627.80
2022-12-11T13:51:24.997Z,651.40
2022-12-11T13:56:24.685Z,651.40
2022-12-11T14:01:25.052Z,627.10
2022-12-11T14:06:24.605Z,627.10
2022-12-11T14:11:24.704Z,622.50
2022-12-11T14:16:24.601Z,622.50
2022-12-11T14:21:24.512Z,513.90
2022-12-11T14:26:24.467Z,513.90
2022-12-11T14:31:24.595Z,389.20
2022-12-11T14:36:24.517Z,389.20
2022-12-11T14:41:24.521Z,436.30
2022-12-11T14:46:24.850Z,436.30
2022-12-11T14:51:24.658Z,666.50
2022-12-11T14:56:24.752Z,666.50
2022-12-11T15:01:24.760Z,674.10
2022-12-11T15:06:24.734Z,674.10
2022-12-11T15:11:24.488Z,676.00
2022-12-11T15:16:24.880Z,676.00
2022-12-11T15:21:24.466Z,669.60
2022-12-11T15:26:24.667Z,669.60
2022-12-11T15:31:24.813Z,669.20
2022-12-11T15:36:24.585Z,669.20
2022-12-11T15:41:24.726Z,682.70
2022-12-11T15:46:24.733Z,682.70
2022-12-11T15:51:24.767Z,674.10
2022-12-11T15:56:24.577Z,674.10
2022-12-11T16:01:25.169Z,677.10
2022-12-11T16:16:25.132Z,673.40
2022-12-11T16:21:24.659Z,676.00
2022-12-11T16:26:24.743Z,676.00
2022-12-11T16:31:24.745Z,673.20
2022-12-11T16:36:24.519Z,673.20
2022-12-11T16:41:24.586Z,661.10
2022-12-11T16:46:24.957Z,661.10
2022-12-11T16:51:24.570Z,666.20
2022-12-11T16:56:24.508Z,666.20
2022-12-11T17:01:24.575Z,666.80
2022-12-11T17:06:24.787Z,666.80
2022-12-11T17:11:24.817Z,668.50
2022-12-11T17:16:24.750Z,668.50
2022-12-11T17:21:25.464Z,678.40
2022-12-11T17:26:24.716Z,678.40
2022-12-11T17:31:25.287Z,710.00
2022-12-11T17:36:24.555Z,710.00
2022-12-11T17:41:24.830Z,706.90
2022-12-11T17:46:24.874Z,706.90
2022-12-11T17:51:24.778Z,707.90
2022-12-11T17:56:24.841Z,707.90
2022-12-11T18:01:24.989Z,703.50
2022-12-11T18:06:24.811Z,703.50
2022-12-11T18:11:24.828Z,697.60
2022-12-11T18:16:24.983Z,697.60
2022-12-11T18:21:24.719Z,693.30
2022-12-11T18:26:24.911Z,693.30
2022-12-11T18:31:25.252Z,688.70
2022-12-11T18:36:24.929Z,688.70
2022-12-11T18:41:24.867Z,690.20
2022-12-11T18:46:24.829Z,690.20
2022-12-11T18:51:25.013Z,703.70
2022-12-11T18:56:24.769Z,703.70
2022-12-11T19:01:25.003Z,697.40
2022-12-11T19:06:24.867Z,697.40
2022-12-11T19:11:25.008Z,700.80
2022-12-11T19:16:24.992Z,700.80
2022-12-11T19:21:24.869Z,701.90
2022-12-11T19:26:25.027Z,701.90
2022-12-11T19:31:24.875Z,715.90
2022-12-11T19:36:24.996Z,715.90
2022-12-11T19:41:24.596Z,737.10
2022-12-11T19:46:25.161Z,737.10
2022-12-11T19:51:24.618Z,733.50
2022-12-11T19:56:25.053Z,733.50
2022-12-11T20:06:25.333Z,741.00
2022-12-11T20:11:24.914Z,747.00
2022-12-11T20:16:46.338Z,747.00
2022-12-11T20:21:24.615Z,755.20
2022-12-11T20:26:24.953Z,755.20
2022-12-11T20:31:25.194Z,751.90
2022-12-11T20:36:24.848Z,751.90
2022-12-11T20:41:25.086Z,749.30
2022-12-11T20:46:25.278Z,749.30
2022-12-11T20:51:26.264Z,738.80
2022-12-11T20:56:25.157Z,738.80
2022-12-11T21:11:24.939Z,724.20
2022-12-11T21:16:24.952Z,724.20
2022-12-11T21:26:25.011Z,716.40
2022-12-11T21:31:25.083Z,719.50
2022-12-11T21:36:24.832Z,719.50
2022-12-11T21:41:24.975Z,729.70
2022-12-11T21:46:24.832Z,729.70
2022-12-11T21:51:24.895Z,742.60
2022-12-11T21:56:24.757Z,742.60
2022-12-11T22:01:24.687Z,741.30
2022-12-11T22:11:24.664Z,760.40
2022-12-11T22:16:24.739Z,760.40
2022-12-11T22:21:24.617Z,789.40
2022-12-11T22:26:24.962Z,789.40
2022-12-11T22:31:24.781Z,787.90
2022-12-11T22:36:24.933Z,787.90
2022-12-11T22:41:24.662Z,766.80
2022-12-11T22:46:24.871Z,766.80
2022-12-11T22:51:24.728Z,775.40
2022-12-11T22:56:24.866Z,775.40
2022-12-11T23:01:24.659Z,784.30
2022-12-11T23:06:24.864Z,784.30
2022-12-11T23:11:24.692Z,754.50
2022-12-11T23:16:24.856Z,754.50
2022-12-11T23:21:24.694Z,763.70
2022-12-11T23:26:24.784Z,763.70
2022-12-11T23:31:24.700Z,634.40
2022-12-11T23:36:24.747Z,634.40
2022-12-11T23:41:24.891Z,693.90
2022-12-11T23:46:24.763Z,693.90
2022-12-11T23:51:24.868Z,520.10
2022-12-11T23:56:24.658Z,520.10
